Time;durP1;ratioP1;P1;durP2;ratioP2;P2;SDS_P1;SDS_P2;PMS_P1;PMS_P2;Temp;Humidity;BMP_temperature;BMP_pressure;BME280_temperature;BME280_humidity;BME280_pressure;Samples;Min_cycle;Max_cycle;Signal;HPM_P1;HPM_P2
2022/01/01 00:00:50;;;;;;;123.17;59.97;;;;;;;;;;5053481;28;20378;-71
2022/01/01 00:03:16;;;;;;;111.50;61.20;;;;;;;;;;5054759;28;20306;-70
2022/01/01 00:05:42;;;;;;;132.67;68.03;;;;;;;;;;5054292;28;20366;-71
2022/01/01 00:08:11;;;;;;;119.03;58.13;;;;;;;;;;5053658;28;20670;-70
2022/01/01 00:10:37;;;;;;;108.20;56.87;;;;;;;;;;5053516;28;20306;-72
2022/01/01 00:13:03;;;;;;;103.43;49.70;;;;;;;;;;5053202;28;20339;-70
2022/01/01 00:15:29;;;;;;;102.20;50.30;;;;;;;;;;5054569;28;20287;-71
2022/01/01 00:17:57;;;;;;;92.67;44.73;;;;;;;;;;5053308;28;20396;-76
2022/01/01 00:20:24;;;;;;;115.67;49.60;;;;;;;;;;5054585;28;20315;-78
2022/01/01 00:22:50;;;;;;;103.97;48.33;;;;;;;;;;5053711;28;20791;-76
2022/01/01 00:25:16;;;;;;;94.13;43.10;;;;;;;;;;5054512;28;20674;-74
2022/01/01 00:27:42;;;;;;;111.43;49.13;;;;;;;;;;5053551;28;20639;-73
2022/01/01 00:30:09;;;;;;;120.47;55.37;;;;;;;;;;5053676;28;20284;-70
2022/01/01 00:32:36;;;;;;;122.90;60.67;;;;;;;;;;5054489;28;20271;-70
2022/01/01 00:35:03;;;;;;;117.80;59.20;;;;;;;;;;5054136;28;20365;-71
2022/01/01 00:37:29;;;;;;;104.17;45.47;;;;;;;;;;5054225;28;20754;-71
2022/01/01 00:39:55;;;;;;;93.03;39.03;;;;;;;;;;5054014;28;20287;-71
2022/01/01 00:42:22;;;;;;;91.30;37.87;;;;;;;;;;5054379;28;20382;-71
2022/01/01 00:44:48;;;;;;;87.83;34.53;;;;;;;;;;5052676;28;20292;-71
2022/01/01 00:47:14;;;;;;;86.43;32.60;;;;;;;;;;5053225;28;20287;-71
2022/01/01 00:49:40;;;;;;;94.07;35.03;;;;;;;;;;5054097;28;20279;-71
2022/01/01 00:52:06;;;;;;;87.77;30.70;;;;;;;;;;5052868;28;20291;-71
2022/01/01 00:54:33;;;;;;;85.03;33.57;;;;;;;;;;5053980;28;20362;-71
2022/01/01 00:56:59;;;;;;;86.40;30.07;;;;;;;;;;5053726;28;20620;-71
2022/01/01 00:59:27;;;;;;;89.43;31.50;;;;;;;;;;5052994;28;20363;-71
2022/01/01 01:01:53;;;;;;;80.83;31.10;;;;;;;;;;5053612;28;20426;-72
2022/01/01 01:04:19;;;;;;;80.83;29.37;;;;;;;;;;5052987;28;20375;-71
2022/01/01 01:06:45;;;;;;;76.43;28.00;;;;;;;;;;5053861;28;20374;-72
2022/01/01 01:09:11;;;;;;;82.70;28.60;;;;;;;;;;5052093;28;20331;-71
2022/01/01 01:11:43;;;;;;;81.63;28.10;;;;;;;;;;5053807;28;20322;-71
2022/01/01 01:14:10;;;;;;;85.77;26.07;;;;;;;;;;5053481;28;20322;-72
2022/01/01 01:16:36;;;;;;;86.30;27.13;;;;;;;;;;5053138;28;20703;-72
2022/01/01 01:19:03;;;;;;;82.80;24.97;;;;;;;;;;5053209;28;20362;-72
2022/01/01 01:21:29;;;;;;;82.83;24.60;;;;;;;;;;5053575;28;20299;-71
2022/01/01 01:23:55;;;;;;;93.07;27.27;;;;;;;;;;5053205;28;20334;-72
2022/01/01 01:26:23;;;;;;;87.87;28.37;;;;;;;;;;5053665;28;20319;-71
2022/01/01 01:28:51;;;;;;;93.37;30.33;;;;;;;;;;5053586;28;20290;-71
2022/01/01 01:31:18;;;;;;;110.13;34.50;;;;;;;;;;5053366;28;20286;-71
2022/01/01 01:33:45;;;;;;;88.87;34.67;;;;;;;;;;5052524;28;20310;-71
2022/01/01 01:36:11;;;;;;;115.77;41.43;;;;;;;;;;5053013;28;21264;-71
2022/01/01 01:38:38;;;;;;;109.90;40.13;;;;;;;;;;5053222;28;20290;-71
2022/01/01 01:41:08;;;;;;;125.77;48.50;;;;;;;;;;5052909;28;20287;-71
2022/01/01 01:43:34;;;;;;;132.23;54.67;;;;;;;;;;5053142;28;20383;-71
2022/01/01 01:46:05;;;;;;;128.80;53.07;;;;;;;;;;5052863;28;20284;-71
2022/01/01 01:48:32;;;;;;;112.30;52.53;;;;;;;;;;5053398;28;20366;-71
2022/01/01 01:50:58;;;;;;;137.07;61.47;;;;;;;;;;5051630;28;20742;-71
2022/01/01 01:53:24;;;;;;;142.60;65.73;;;;;;;;;;5052030;28;20342;-71
2022/01/01 01:55:50;;;;;;;131.40;60.37;;;;;;;;;;5052962;28;20279;-71
2022/01/01 01:58:17;;;;;;;145.40;67.37;;;;;;;;;;5051651;28;20642;-71
2022/01/01 02:03:12;;;;;;;148.37;63.57;;;;;;;;;;5052541;28;20295;-71
2022/01/01 02:05:39;;;;;;;137.40;59.20;;;;;;;;;;5053033;28;20283;-71
2022/01/01 02:08:06;;;;;;;127.80;53.40;;;;;;;;;;5052546;28;20365;-71
2022/01/01 02:10:33;;;;;;;135.47;52.97;;;;;;;;;;5052507;28;20299;-71
2022/01/01 02:13:05;;;;;;;119.67;48.87;;;;;;;;;;5052487;28;20287;-71
2022/01/01 02:18:08;;;;;;;107.93;41.37;;;;;;;;;;5052515;28;20367;-71
2022/01/01 02:20:34;;;;;;;115.97;42.63;;;;;;;;;;5052908;28;20279;-71
2022/01/01 02:23:01;;;;;;;105.77;39.70;;;;;;;;;;5052359;28;20695;-71
2022/01/01 02:25:28;;;;;;;112.33;41.00;;;;;;;;;;5052638;28;20632;-71
2022/01/01 02:27:54;;;;;;;118.23;41.63;;;;;;;;;;5052672;28;20311;-71
2022/01/01 02:30:21;;;;;;;105.03;44.20;;;;;;;;;;5056324;28;20393;-71
2022/01/01 02:32:47;;;;;;;132.57;47.00;;;;;;;;;;5056661;28;20322;-71
2022/01/01 02:35:15;;;;;;;130.20;51.63;;;;;;;;;;5056296;28;20287;-71
2022/01/01 02:37:42;;;;;;;139.47;55.27;;;;;;;;;;5056523;28;20375;-71
2022/01/01 02:40:09;;;;;;;130.53;55.60;;;;;;;;;;5055248;28;20323;-71
2022/01/01 02:42:35;;;;;;;121.20;57.37;;;;;;;;;;5038441;28;20343;-71
2022/01/01 02:45:07;;;;;;;156.30;62.37;;;;;;;;;;5056141;28;20374;-71
2022/01/01 02:47:33;;;;;;;152.20;61.17;;;;;;;;;;5055543;28;20344;-71
2022/01/01 02:49:59;;;;;;;149.83;61.03;;;;;;;;;;5055991;28;20332;-74
2022/01/01 02:52:25;;;;;;;133.57;57.27;;;;;;;;;;5056344;28;20359;-71
2022/01/01 02:54:51;;;;;;;137.67;62.83;;;;;;;;;;5056448;28;20279;-71
2022/01/01 02:57:18;;;;;;;142.47;57.50;;;;;;;;;;5055927;28;20340;-71
2022/01/01 02:59:44;;;;;;;131.87;55.53;;;;;;;;;;5056183;28;20289;-71
2022/01/01 03:02:11;;;;;;;122.87;53.23;;;;;;;;;;5055756;28;20307;-71
2022/01/01 03:04:37;;;;;;;125.70;50.13;;;;;;;;;;5056361;28;20290;-71
2022/01/01 03:07:03;;;;;;;106.47;47.13;;;;;;;;;;5055746;28;20283;-72
2022/01/01 03:09:34;;;;;;;120.47;48.83;;;;;;;;;;5055981;28;20331;-71
2022/01/01 03:12:08;;;;;;;120.63;49.93;;;;;;;;;;5056189;28;20279;-71
2022/01/01 03:14:34;;;;;;;122.27;46.77;;;;;;;;;;5038279;28;20321;-71
2022/01/01 03:17:01;;;;;;;117.27;45.53;;;;;;;;;;5056003;28;20289;-71
2022/01/01 03:19:27;;;;;;;125.43;47.53;;;;;;;;;;5054583;28;20362;-71
2022/01/01 03:21:53;;;;;;;130.20;49.83;;;;;;;;;;5055835;28;20330;-71
2022/01/01 03:24:19;;;;;;;112.50;49.77;;;;;;;;;;5055395;28;20368;-71
2022/01/01 03:26:45;;;;;;;115.00;48.00;;;;;;;;;;5055727;28;20289;-71
2022/01/01 03:29:11;;;;;;;132.57;53.97;;;;;;;;;;5055352;28;20288;-71
2022/01/01 03:31:38;;;;;;;130.23;54.80;;;;;;;;;;5054323;28;20643;-72
2022/01/01 03:34:04;;;;;;;133.13;55.83;;;;;;;;;;5054397;28;20330;-74
2022/01/01 03:36:30;;;;;;;151.10;60.13;;;;;;;;;;5055756;28;20366;-71
2022/01/01 03:38:57;;;;;;;147.67;62.17;;;;;;;;;;5055052;28;20366;-71
2022/01/01 03:41:24;;;;;;;156.87;59.37;;;;;;;;;;5055023;28;20287;-71
2022/01/01 03:43:50;;;;;;;141.13;58.07;;;;;;;;;;5054332;28;20767;-71
2022/01/01 03:46:16;;;;;;;158.40;60.47;;;;;;;;;;5055106;28;20284;-71
2022/01/01 03:48:42;;;;;;;157.33;60.83;;;;;;;;;;5055299;28;20286;-71
2022/01/01 03:51:09;;;;;;;166.27;66.57;;;;;;;;;;5054944;28;20315;-72
2022/01/01 03:53:35;;;;;;;153.40;62.13;;;;;;;;;;5055174;28;20822;-71
2022/01/01 03:56:01;;;;;;;167.73;66.83;;;;;;;;;;5055079;28;20276;-71
2022/01/01 03:58:27;;;;;;;162.83;65.90;;;;;;;;;;5054522;28;20628;-71
2022/01/01 04:00:53;;;;;;;168.50;64.00;;;;;;;;;;5054829;28;20299;-71
2022/01/01 04:03:19;;;;;;;158.07;65.53;;;;;;;;;;5055015;28;20348;-72
2022/01/01 04:05:46;;;;;;;148.13;63.73;;;;;;;;;;5055006;28;20311;-71
2022/01/01 04:08:13;;;;;;;147.30;65.37;;;;;;;;;;5054633;28;20279;-71
2022/01/01 04:10:39;;;;;;;137.43;63.27;;;;;;;;;;5055046;28;20295;-71
2022/01/01 04:13:07;;;;;;;154.43;67.77;;;;;;;;;;5054881;28;20359;-71
2022/01/01 04:15:35;;;;;;;168.20;72.63;;;;;;;;;;5054654;28;20298;-71
2022/01/01 04:18:05;;;;;;;154.37;72.27;;;;;;;;;;5054827;28;20275;-71
2022/01/01 04:20:31;;;;;;;147.73;71.07;;;;;;;;;;5054437;28;20366;-71
2022/01/01 04:22:58;;;;;;;156.07;74.33;;;;;;;;;;5053441;28;20310;-71
2022/01/01 04:25:24;;;;;;;145.37;75.30;;;;;;;;;;5054311;28;20315;-71
2022/01/01 04:27:51;;;;;;;146.73;74.87;;;;;;;;;;5054570;28;20814;-71
2022/01/01 04:30:18;;;;;;;156.10;75.70;;;;;;;;;;5054242;28;20279;-72
2022/01/01 04:32:44;;;;;;;146.17;74.53;;;;;;;;;;5054487;28;20355;-71
2022/01/01 04:35:11;;;;;;;155.70;80.93;;;;;;;;;;5054446;28;20279;-73
2022/01/01 04:37:38;;;;;;;158.67;84.00;;;;;;;;;;5053173;28;20287;-71
2022/01/01 04:40:05;;;;;;;157.87;83.53;;;;;;;;;;5054358;28;20690;-71
2022/01/01 04:42:31;;;;;;;164.10;85.93;;;;;;;;;;5053839;28;20409;-71
2022/01/01 04:44:57;;;;;;;166.43;85.73;;;;;;;;;;5054262;28;20470;-71
2022/01/01 04:47:24;;;;;;;172.60;87.03;;;;;;;;;;5053809;28;20291;-71
2022/01/01 04:49:50;;;;;;;165.57;81.40;;;;;;;;;;5054119;28;20715;-71
2022/01/01 04:52:17;;;;;;;147.37;75.17;;;;;;;;;;5052916;28;20271;-71
2022/01/01 04:54:44;;;;;;;132.77;60.63;;;;;;;;;;5054002;28;20354;-71
2022/01/01 04:57:11;;;;;;;156.10;61.97;;;;;;;;;;5053010;28;20627;-71
2022/01/01 04:59:37;;;;;;;136.63;50.13;;;;;;;;;;5053604;28;20280;-71
2022/01/01 05:02:04;;;;;;;151.37;54.60;;;;;;;;;;5052801;28;20306;-71
2022/01/01 05:04:30;;;;;;;156.67;53.70;;;;;;;;;;5053610;28;20283;-71
2022/01/01 05:06:56;;;;;;;202.07;58.30;;;;;;;;;;5053833;28;20286;-71
2022/01/01 05:09:23;;;;;;;183.97;56.43;;;;;;;;;;5053194;28;20368;-71
2022/01/01 05:11:49;;;;;;;177.00;56.30;;;;;;;;;;5052713;28;20303;-71
2022/01/01 05:14:16;;;;;;;170.43;52.53;;;;;;;;;;5053349;28;20287;-73
2022/01/01 05:16:43;;;;;;;159.77;51.30;;;;;;;;;;5053647;28;20288;-71
2022/01/01 05:19:09;;;;;;;183.97;51.97;;;;;;;;;;5052354;28;20805;-71
2022/01/01 05:21:36;;;;;;;137.10;48.97;;;;;;;;;;5051879;28;20295;-71
2022/01/01 05:24:06;;;;;;;207.77;58.10;;;;;;;;;;5052339;28;20696;-71
2022/01/01 05:26:33;;;;;;;224.13;60.13;;;;;;;;;;5053235;28;20276;-71
2022/01/01 05:28:59;;;;;;;203.80;57.47;;;;;;;;;;5053431;28;20374;-71
2022/01/01 05:31:26;;;;;;;175.73;55.37;;;;;;;;;;5053127;28;20284;-71
2022/01/01 05:33:55;;;;;;;204.73;58.67;;;;;;;;;;5053295;28;20291;-71
2022/01/01 05:36:21;;;;;;;182.90;55.90;;;;;;;;;;5053012;28;20288;-72
2022/01/01 05:38:47;;;;;;;210.73;60.00;;;;;;;;;;5053273;28;20276;-71
2022/01/01 05:41:13;;;;;;;202.40;55.73;;;;;;;;;;5053210;28;20755;-71
2022/01/01 05:43:40;;;;;;;204.70;58.77;;;;;;;;;;5052844;28;20306;-71
2022/01/01 05:46:06;;;;;;;192.87;54.73;;;;;;;;;;5053153;28;20420;-71
2022/01/01 05:48:32;;;;;;;197.37;54.10;;;;;;;;;;5052747;28;20367;-71
2022/01/01 05:50:59;;;;;;;148.50;48.27;;;;;;;;;;5053125;28;20276;-71
2022/01/01 05:53:25;;;;;;;161.20;48.73;;;;;;;;;;5052679;28;20364;-71
2022/01/01 05:55:51;;;;;;;148.70;46.80;;;;;;;;;;5053099;28;20283;-71
2022/01/01 05:58:18;;;;;;;157.03;47.27;;;;;;;;;;5053082;28;20319;-71
2022/01/01 06:00:44;;;;;;;129.80;41.73;;;;;;;;;;5052621;28;20290;-71
2022/01/01 06:03:10;;;;;;;130.13;40.27;;;;;;;;;;5052763;28;20482;-71
2022/01/01 06:05:37;;;;;;;115.20;38.13;;;;;;;;;;5052412;28;20283;-71
2022/01/01 06:08:04;;;;;;;110.80;34.37;;;;;;;;;;5052551;28;20758;-71
2022/01/01 06:10:30;;;;;;;100.67;32.33;;;;;;;;;;5052118;28;20342;-71
2022/01/01 06:12:56;;;;;;;95.57;31.73;;;;;;;;;;5052780;28;20280;-71
2022/01/01 06:15:22;;;;;;;95.13;31.97;;;;;;;;;;5052443;28;20751;-71
2022/01/01 06:17:49;;;;;;;97.50;30.40;;;;;;;;;;5052737;28;20666;-71
2022/01/01 06:20:15;;;;;;;83.73;29.63;;;;;;;;;;5052862;28;20276;-71
2022/01/01 06:22:42;;;;;;;83.27;27.77;;;;;;;;;;5052369;28;20382;-71
2022/01/01 06:25:09;;;;;;;85.33;27.17;;;;;;;;;;5052669;28;20283;-72
2022/01/01 06:27:35;;;;;;;91.00;29.63;;;;;;;;;;5052368;28;20287;-71
2022/01/01 06:30:01;;;;;;;83.77;29.27;;;;;;;;;;5052619;28;20364;-71
2022/01/01 06:32:30;;;;;;;96.07;32.63;;;;;;;;;;5052268;28;20297;-71
2022/01/01 06:34:56;;;;;;;94.17;32.73;;;;;;;;;;5052600;28;20333;-71
2022/01/01 06:37:22;;;;;;;98.80;34.57;;;;;;;;;;5052540;28;20276;-71
2022/01/01 06:39:49;;;;;;;79.93;30.93;;;;;;;;;;5052453;28;20281;-71
2022/01/01 06:42:15;;;;;;;104.07;35.93;;;;;;;;;;5052770;28;20302;-71
2022/01/01 06:44:42;;;;;;;102.47;35.77;;;;;;;;;;5052181;28;20287;-71
2022/01/01 06:47:09;;;;;;;88.87;33.53;;;;;;;;;;5052450;28;20318;-71
2022/01/01 06:49:35;;;;;;;94.37;32.50;;;;;;;;;;5052166;28;20310;-71
2022/01/01 06:52:01;;;;;;;102.47;32.40;;;;;;;;;;5052452;28;20282;-71
2022/01/01 06:54:27;;;;;;;88.57;31.80;;;;;;;;;;5052131;28;20275;-71
2022/01/01 06:56:53;;;;;;;84.50;31.47;;;;;;;;;;5052306;28;20827;-71
2022/01/01 06:59:20;;;;;;;84.17;30.23;;;;;;;;;;5052338;28;20318;-71
2022/01/01 07:01:46;;;;;;;95.70;32.70;;;;;;;;;;5051963;28;20299;-71
2022/01/01 07:04:12;;;;;;;86.23;30.13;;;;;;;;;;5052313;28;20371;-71
2022/01/01 07:06:38;;;;;;;81.80;31.37;;;;;;;;;;5051737;28;20782;-71
2022/01/01 07:09:04;;;;;;;85.23;31.17;;;;;;;;;;5052266;28;20291;-71
2022/01/01 07:11:30;;;;;;;83.13;31.13;;;;;;;;;;5051953;28;20330;-71
2022/01/01 07:13:57;;;;;;;85.80;31.67;;;;;;;;;;5052197;28;20334;-71
2022/01/01 07:16:23;;;;;;;79.47;32.87;;;;;;;;;;5054751;28;20359;-71
2022/01/01 07:18:49;;;;;;;84.20;32.17;;;;;;;;;;5054694;28;20357;-71
2022/01/01 07:21:15;;;;;;;78.20;30.37;;;;;;;;;;5055902;28;20290;-71
2022/01/01 07:23:42;;;;;;;92.53;34.93;;;;;;;;;;5054367;28;20372;-71
2022/01/01 07:26:09;;;;;;;95.97;34.77;;;;;;;;;;5055781;28;20286;-71
2022/01/01 07:28:35;;;;;;;99.30;35.53;;;;;;;;;;5055490;28;20286;-72
2022/01/01 07:31:01;;;;;;;87.10;34.37;;;;;;;;;;5055681;28;20284;-71
2022/01/01 07:33:27;;;;;;;82.00;34.03;;;;;;;;;;5054449;28;20280;-71
2022/01/01 07:35:55;;;;;;;78.77;32.37;;;;;;;;;;5055253;28;20286;-71
2022/01/01 07:38:22;;;;;;;77.93;31.00;;;;;;;;;;5055529;28;20370;-71
2022/01/01 07:40:49;;;;;;;73.43;31.30;;;;;;;;;;5055139;28;20280;-71
2022/01/01 07:43:16;;;;;;;79.40;32.27;;;;;;;;;;5055356;28;20299;-71
2022/01/01 07:45:42;;;;;;;73.63;31.57;;;;;;;;;;5055142;28;20291;-72
2022/01/01 07:48:09;;;;;;;72.40;30.27;;;;;;;;;;5055334;28;20421;-71
2022/01/01 07:50:35;;;;;;;78.57;32.07;;;;;;;;;;5054999;28;20282;-72
2022/01/01 07:53:02;;;;;;;85.73;33.97;;;;;;;;;;5055505;28;20366;-71
2022/01/01 07:55:28;;;;;;;82.33;34.10;;;;;;;;;;5054850;28;20640;-71
2022/01/01 07:57:54;;;;;;;77.03;33.07;;;;;;;;;;5054805;28;20290;-71
2022/01/01 08:00:20;;;;;;;72.33;30.87;;;;;;;;;;5055260;28;20283;-71
2022/01/01 08:02:47;;;;;;;81.70;34.00;;;;;;;;;;5054721;28;20318;-71
2022/01/01 08:05:16;;;;;;;74.03;32.73;;;;;;;;;;5054131;28;20315;-71
2022/01/01 08:07:43;;;;;;;75.53;33.97;;;;;;;;;;5054654;28;20751;-71
2022/01/01 08:10:10;;;;;;;68.17;32.60;;;;;;;;;;5053496;28;20690;-71
2022/01/01 08:12:36;;;;;;;90.50;34.10;;;;;;;;;;5054737;28;20286;-72
2022/01/01 08:15:03;;;;;;;86.73;37.70;;;;;;;;;;5054839;28;20275;-71
2022/01/01 08:17:29;;;;;;;85.97;36.73;;;;;;;;;;5054942;28;20284;-71
2022/01/01 08:19:57;;;;;;;78.90;34.77;;;;;;;;;;5054453;28;20478;-71
2022/01/01 08:22:23;;;;;;;85.80;33.03;;;;;;;;;;5053500;28;20299;-71
2022/01/01 08:24:49;;;;;;;74.00;34.00;;;;;;;;;;5054390;28;20631;-71
2022/01/01 08:27:15;;;;;;;73.73;33.07;;;;;;;;;;5054567;28;20284;-71
2022/01/01 08:29:42;;;;;;;74.63;35.60;;;;;;;;;;5054259;28;20279;-71
2022/01/01 08:32:08;;;;;;;68.07;31.33;;;;;;;;;;5054674;28;20359;-71
2022/01/01 08:34:34;;;;;;;66.73;30.57;;;;;;;;;;5054541;28;20352;-71
2022/01/01 08:37:00;;;;;;;66.10;32.47;;;;;;;;;;5054168;28;20358;-71
2022/01/01 08:39:27;;;;;;;73.23;30.77;;;;;;;;;;5053474;28;20605;-71
2022/01/01 08:41:53;;;;;;;70.27;32.47;;;;;;;;;;5052825;28;20299;-71
2022/01/01 08:44:19;;;;;;;63.20;30.80;;;;;;;;;;5053121;28;20366;-71
2022/01/01 08:46:45;;;;;;;67.77;31.33;;;;;;;;;;5053928;28;20280;-72
2022/01/01 08:49:11;;;;;;;62.33;27.90;;;;;;;;;;5036338;28;20291;-71
2022/01/01 08:51:38;;;;;;;59.73;28.43;;;;;;;;;;5054182;28;20425;-71
2022/01/01 08:54:04;;;;;;;62.83;29.60;;;;;;;;;;5053908;28;20364;-72
2022/01/01 08:56:32;;;;;;;53.60;27.47;;;;;;;;;;5053746;28;20834;-71
2022/01/01 08:58:58;;;;;;;56.83;25.63;;;;;;;;;;5053703;28;20315;-71
2022/01/01 09:01:24;;;;;;;53.80;26.50;;;;;;;;;;5053857;28;20315;-71
2022/01/01 09:03:50;;;;;;;60.83;27.17;;;;;;;;;;5053547;28;20751;-71
2022/01/01 09:06:17;;;;;;;56.40;26.77;;;;;;;;;;5054019;28;20315;-71
2022/01/01 09:08:43;;;;;;;58.60;27.33;;;;;;;;;;5053512;28;20277;-71
2022/01/01 09:11:10;;;;;;;54.90;26.97;;;;;;;;;;5053721;28;20296;-72
2022/01/01 09:13:41;;;;;;;49.30;26.00;;;;;;;;;;5052470;28;20833;-72
2022/01/01 09:16:08;;;;;;;52.00;26.20;;;;;;;;;;5053868;28;20366;-72
2022/01/01 09:18:34;;;;;;;50.70;24.43;;;;;;;;;;5053622;28;20287;-72
2022/01/01 09:21:00;;;;;;;43.93;22.63;;;;;;;;;;5052087;28;20667;-72
2022/01/01 09:23:27;;;;;;;44.97;23.77;;;;;;;;;;5052297;28;20655;-72
2022/01/01 09:25:54;;;;;;;38.93;21.73;;;;;;;;;;5053140;28;20295;-73
2022/01/01 09:28:20;;;;;;;44.17;21.60;;;;;;;;;;5053608;28;20298;-72
2022/01/01 09:30:46;;;;;;;43.30;23.03;;;;;;;;;;5053031;28;20767;-72
2022/01/01 09:33:12;;;;;;;49.17;23.57;;;;;;;;;;5052128;28;20759;-72
2022/01/01 09:35:39;;;;;;;44.37;21.33;;;;;;;;;;5053416;28;20620;-72
2022/01/01 09:38:05;;;;;;;48.27;21.20;;;;;;;;;;5051328;28;20378;-72
2022/01/01 09:40:32;;;;;;;45.30;22.77;;;;;;;;;;5052941;28;20776;-72
2022/01/01 09:42:59;;;;;;;41.97;21.63;;;;;;;;;;5052762;28;20306;-72
2022/01/01 09:45:25;;;;;;;49.50;21.70;;;;;;;;;;5053243;28;20291;-72
2022/01/01 09:47:51;;;;;;;47.17;23.07;;;;;;;;;;5051634;28;20727;-72
2022/01/01 09:50:18;;;;;;;52.43;26.47;;;;;;;;;;5053373;28;20276;-70
2022/01/01 09:52:44;;;;;;;43.77;22.27;;;;;;;;;;5053067;28;20622;-71
2022/01/01 09:55:10;;;;;;;47.20;21.20;;;;;;;;;;5052390;28;20850;-72
2022/01/01 09:57:36;;;;;;;44.77;20.50;;;;;;;;;;5053046;28;20620;-72
2022/01/01 10:00:04;;;;;;;47.30;20.50;;;;;;;;;;5052727;28;20678;-72
2022/01/01 10:02:30;;;;;;;38.00;19.90;;;;;;;;;;5051730;28;20845;-71
2022/01/01 10:05:02;;;;;;;42.63;19.23;;;;;;;;;;5051434;28;20286;-72
2022/01/01 10:07:29;;;;;;;39.03;18.90;;;;;;;;;;5053101;28;20315;-72
2022/01/01 10:09:55;;;;;;;47.93;30.80;;;;;;;;;;5052405;28;20307;-72
2022/01/01 10:12:36;;;;;;;40.97;19.80;;;;;;;;;;5053139;28;20282;-71
2022/01/01 10:15:06;;;;;;;40.07;18.60;;;;;;;;;;5052620;28;20279;-72
2022/01/01 10:17:32;;;;;;;42.00;18.40;;;;;;;;;;5051718;28;20374;-72
2022/01/01 10:19:58;;;;;;;40.30;17.07;;;;;;;;;;5052672;28;20283;-72
2022/01/01 10:22:25;;;;;;;36.90;17.63;;;;;;;;;;5052645;28;20652;-72
2022/01/01 10:27:57;;;;;;;38.43;18.20;;;;;;;;;;5052855;28;20318;-70
2022/01/01 10:30:23;;;;;;;33.05;15.05;;;;;;;;;;5052729;28;20296;-71
2022/01/01 10:33:05;;;;;;;32.63;16.20;;;;;;;;;;5052421;28;20488;-72
2022/01/01 10:35:36;;;;;;;38.10;16.53;;;;;;;;;;5052739;28;20283;-71
2022/01/01 10:38:06;;;;;;;33.10;16.43;;;;;;;;;;5052258;28;20290;-72
2022/01/01 10:40:32;;;;;;;42.20;17.43;;;;;;;;;;5052522;28;20362;-72
2022/01/01 10:42:58;;;;;;;35.17;16.57;;;;;;;;;;5052131;28;20295;-77
2022/01/01 10:45:38;;;;;;;30.10;16.40;;;;;;;;;;5052478;28;20291;-76
2022/01/01 10:49:29;;;;;;;32.83;16.53;;;;;;;;;;5051026;28;20366;-77
2022/01/01 10:51:04;;;;;;;29.57;14.57;;;;;;;;;;5046191;28;20775;-75
2022/01/01 10:53:30;;;;;;;32.00;15.20;;;;;;;;;;5056609;28;20326;-75
2022/01/01 10:55:58;;;;;;;33.30;17.17;;;;;;;;;;5054894;28;20374;-76
2022/01/01 10:58:29;;;;;;;32.77;16.00;;;;;;;;;;5055111;28;20700;-76
2022/01/01 11:01:04;;;;;;;30.40;15.67;;;;;;;;;;5056072;28;20647;-76
2022/01/01 11:03:35;;;;;;;31.25;15.32;;;;;;;;;;5056127;28;20820;-76
2022/01/01 11:06:06;;;;;;;38.03;21.10;;;;;;;;;;5055895;28;20052;-76
2022/01/01 11:08:33;;;;;;;29.47;14.67;;;;;;;;;;5056180;28;20299;-77
2022/01/01 11:10:59;;;;;;;27.10;14.40;;;;;;;;;;5054209;28;20300;-75
2022/01/01 11:13:27;;;;;;;29.67;13.87;;;;;;;;;;5056015;28;20777;-75
2022/01/01 11:15:53;;;;;;;30.50;14.43;;;;;;;;;;5055984;28;20374;-76
2022/01/01 11:18:19;;;;;;;25.13;14.43;;;;;;;;;;5054411;28;20299;-75
2022/01/01 11:20:45;;;;;;;30.53;14.07;;;;;;;;;;5056133;28;20311;-76
2022/01/01 11:23:12;;;;;;;26.43;13.50;;;;;;;;;;5054406;28;20343;-80
2022/01/01 11:25:40;;;;;;;29.10;13.97;;;;;;;;;;5055884;28;20275;-75
2022/01/01 11:28:07;;;;;;;29.70;13.23;;;;;;;;;;5055509;28;20322;-75
2022/01/01 11:30:35;;;;;;;27.60;13.67;;;;;;;;;;5054783;28;20647;-75
2022/01/01 11:33:04;;;;;;;25.37;11.77;;;;;;;;;;5055508;28;20276;-72
2022/01/01 11:35:35;;;;;;;23.97;11.93;;;;;;;;;;5055904;28;20310;-72
2022/01/01 11:38:01;;;;;;;28.13;11.53;;;;;;;;;;5055297;28;20284;-72
2022/01/01 11:40:28;;;;;;;21.83;11.67;;;;;;;;;;5055516;28;20752;-72
2022/01/01 11:42:54;;;;;;;24.70;11.10;;;;;;;;;;5054419;28;20339;-72
2022/01/01 11:45:40;;;;;;;22.07;10.30;;;;;;;;;;5055175;28;20294;-72
2022/01/01 11:48:24;;;;;;;22.50;10.85;;;;;;;;;;5055096;28;20597;-72
2022/01/01 11:50:50;;;;;;;22.08;10.70;;;;;;;;;;5054145;28;20088;-71
2022/01/01 11:53:32;;;;;;;20.90;10.37;;;;;;;;;;5055009;28;20041;-72
2022/01/01 11:56:12;;;;;;;20.03;9.47;;;;;;;;;;5055153;28;20280;-72
2022/01/01 11:58:49;;;;;;;18.80;9.23;;;;;;;;;;5054082;28;20315;-71
2022/01/01 12:01:19;;;;;;;21.13;9.37;;;;;;;;;;5054552;28;20326;-71
2022/01/01 12:03:49;;;;;;;20.37;9.27;;;;;;;;;;5055234;28;20335;-72
2022/01/01 12:06:15;;;;;;;20.17;9.27;;;;;;;;;;5054770;28;20294;-73
2022/01/01 12:08:43;;;;;;;17.33;8.83;;;;;;;;;;5055093;28;20288;-72
2022/01/01 12:11:09;;;;;;;18.80;8.47;;;;;;;;;;5054198;28;20327;-72
2022/01/01 12:13:38;;;;;;;17.10;8.90;;;;;;;;;;5055133;28;20284;-73
2022/01/01 12:16:20;;;;;;;17.87;8.30;;;;;;;;;;5054687;28;20302;-74
2022/01/01 12:18:46;;;;;;;16.93;7.53;;;;;;;;;;5054903;28;20341;-71
2022/01/01 12:21:20;;;;;;;18.13;8.40;;;;;;;;;;5054190;28;20886;-72
2022/01/01 12:23:54;;;;;;;21.60;8.37;;;;;;;;;;5054915;28;20303;-72
2022/01/01 12:26:24;;;;;;;17.43;7.87;;;;;;;;;;5054448;28;20275;-72
2022/01/01 12:28:51;;;;;;;22.20;9.40;;;;;;;;;;5054727;28;20319;-76
2022/01/01 12:31:21;;;;;;;19.67;7.80;;;;;;;;;;5054394;28;20350;-76
2022/01/01 12:33:50;;;;;;;16.53;7.90;;;;;;;;;;5048354;28;20368;-79
2022/01/01 12:36:17;;;;;;;20.07;8.23;;;;;;;;;;5052308;28;20310;-73
2022/01/01 12:39:00;;;;;;;16.17;8.20;;;;;;;;;;5053415;28;20362;-80
2022/01/01 12:41:29;;;;;;;20.20;8.57;;;;;;;;;;5053277;28;20288;-80
2022/01/01 12:43:56;;;;;;;17.97;8.23;;;;;;;;;;5053989;28;20840;-80
2022/01/01 12:46:24;;;;;;;16.00;7.73;;;;;;;;;;5054219;28;20318;-79
2022/01/01 12:48:51;;;;;;;21.57;9.50;;;;;;;;;;5054303;28;20286;-80
2022/01/01 12:51:20;;;;;;;16.07;9.03;;;;;;;;;;5054094;28;20287;-79
2022/01/01 12:53:47;;;;;;;22.90;8.23;;;;;;;;;;5054095;28;20771;-80
2022/01/01 12:56:16;;;;;;;16.93;8.40;;;;;;;;;;5053914;28;20283;-79
2022/01/01 12:58:44;;;;;;;16.33;7.73;;;;;;;;;;5052789;28;20295;-73
2022/01/01 13:01:11;;;;;;;20.70;8.73;;;;;;;;;;5053615;28;20763;-74
2022/01/01 13:03:38;;;;;;;18.10;8.67;;;;;;;;;;5053851;28;20390;-73
2022/01/01 13:06:04;;;;;;;17.47;8.90;;;;;;;;;;5053884;28;20432;-73
2022/01/01 13:08:31;;;;;;;16.53;8.30;;;;;;;;;;5053500;28;20398;-73
2022/01/01 13:10:57;;;;;;;17.43;9.07;;;;;;;;;;5053796;28;20295;-73
2022/01/01 13:13:24;;;;;;;18.50;9.00;;;;;;;;;;5051513;28;20291;-73
2022/01/01 13:15:50;;;;;;;18.00;10.17;;;;;;;;;;5053729;28;20294;-73
2022/01/01 13:18:16;;;;;;;17.30;8.80;;;;;;;;;;5053415;28;20290;-72
2022/01/01 13:20:43;;;;;;;19.17;9.67;;;;;;;;;;5053649;28;20283;-73
2022/01/01 13:23:15;;;;;;;14.90;10.20;;;;;;;;;;5053525;28;20648;-77
2022/01/01 13:25:41;;;;;;;21.37;9.30;;;;;;;;;;5048391;28;20778;-76
2022/01/01 13:28:07;;;;;;;17.07;10.30;;;;;;;;;;5041203;28;20280;-76
2022/01/01 13:30:33;;;;;;;21.30;10.77;;;;;;;;;;5046642;28;20971;-76
2022/01/01 13:32:59;;;;;;;21.67;10.33;;;;;;;;;;5033724;28;20299;-77
2022/01/01 13:35:26;;;;;;;18.30;9.90;;;;;;;;;;5026249;28;20333;-73
2022/01/01 13:37:54;;;;;;;19.30;10.60;;;;;;;;;;5053260;28;20674;-73
2022/01/01 13:40:20;;;;;;;18.13;10.87;;;;;;;;;;5055284;28;20297;-73
2022/01/01 13:42:46;;;;;;;16.93;9.70;;;;;;;;;;5053064;28;20299;-72
2022/01/01 13:45:12;;;;;;;20.43;10.97;;;;;;;;;;5053174;28;20294;-74
2022/01/01 13:47:39;;;;;;;19.53;11.10;;;;;;;;;;5052636;28;20283;-76
2022/01/01 13:50:12;;;;;;;18.87;10.67;;;;;;;;;;5053248;28;20302;-75
2022/01/01 13:52:39;;;;;;;21.33;11.13;;;;;;;;;;5052884;28;20687;-74
2022/01/01 13:55:08;;;;;;;19.73;10.90;;;;;;;;;;5052331;28;20291;-75
2022/01/01 13:57:38;;;;;;;20.47;11.37;;;;;;;;;;5052770;28;20333;-77
2022/01/01 14:00:05;;;;;;;16.90;10.60;;;;;;;;;;5053003;28;20315;-72
2022/01/01 14:02:32;;;;;;;19.10;11.30;;;;;;;;;;5052708;28;20310;-72
2022/01/01 14:05:01;;;;;;;16.77;11.10;;;;;;;;;;5053017;28;20290;-73
2022/01/01 14:07:28;;;;;;;15.60;10.80;;;;;;;;;;5052633;28;20676;-71
2022/01/01 14:09:57;;;;;;;20.83;12.13;;;;;;;;;;5051613;28;20291;-72
2022/01/01 14:12:24;;;;;;;19.73;13.17;;;;;;;;;;5052748;28;20299;-77
2022/01/01 14:14:51;;;;;;;21.47;13.07;;;;;;;;;;5052847;28;20287;-77
2022/01/01 14:17:17;;;;;;;19.03;11.80;;;;;;;;;;5052011;28;20292;-75
2022/01/01 14:19:43;;;;;;;18.57;12.20;;;;;;;;;;5052563;28;20370;-73
2022/01/01 14:22:13;;;;;;;17.23;11.00;;;;;;;;;;5052721;28;20356;-75